createdAt,value
2023-05-06T00:00:03.714Z,4.90
2023-05-06T00:02:30.551Z,4.20
2023-05-06T00:04:57.411Z,6.30
2023-05-06T00:07:24.200Z,5.20
2023-05-06T00:09:51.021Z,5.37
2023-05-06T00:12:17.776Z,5.00
2023-05-06T00:14:44.549Z,5.00
2023-05-06T00:17:11.472Z,6.73
2023-05-06T00:19:38.772Z,5.93
2023-05-06T00:22:05.758Z,5.47
2023-05-06T00:24:32.517Z,4.17
2023-05-06T00:26:59.268Z,7.77
2023-05-06T00:29:26.005Z,6.03
2023-05-06T00:31:52.798Z,9.53
2023-05-06T00:34:19.531Z,5.80
2023-05-06T00:36:46.235Z,6.17
2023-05-06T00:39:12.952Z,7.30
2023-05-06T00:41:39.677Z,8.83
2023-05-06T00:44:06.417Z,6.90
2023-05-06T00:46:33.772Z,6.67
2023-05-06T00:49:00.670Z,5.50
2023-05-06T00:51:27.745Z,5.33
2023-05-06T00:53:54.602Z,5.10
2023-05-06T00:56:21.427Z,6.33
2023-05-06T00:58:48.670Z,5.13
2023-05-06T01:01:15.593Z,5.87
2023-05-06T01:03:42.690Z,6.93
2023-05-06T01:06:26.066Z,5.73
2023-05-06T01:09:30.799Z,7.50
2023-05-06T01:12:03.660Z,5.50
2023-05-06T01:14:59.663Z,6.73
2023-05-06T01:17:28.387Z,6.47
2023-05-06T01:19:58.559Z,7.37
2023-05-06T01:22:27.876Z,5.60
2023-05-06T01:24:54.629Z,10.30
2023-05-06T01:27:21.950Z,7.47
2023-05-06T01:29:49.134Z,5.53
2023-05-06T01:32:36.521Z,6.10
2023-05-06T01:35:12.155Z,7.63
2023-05-06T01:37:59.961Z,4.87
2023-05-06T01:40:28.323Z,6.13
2023-05-06T01:42:55.699Z,5.90
2023-05-06T01:45:26.374Z,9.10
2023-05-06T01:47:53.601Z,10.50
2023-05-06T01:50:20.846Z,6.07
2023-05-06T01:52:57.535Z,5.93
2023-05-06T01:55:24.296Z,6.47
2023-05-06T01:57:51.434Z,6.90
2023-05-06T02:00:18.415Z,8.00
2023-05-06T02:02:45.301Z,6.57
2023-05-06T02:05:12.107Z,9.20
2023-05-06T02:07:38.834Z,6.90
2023-05-06T02:10:06.074Z,8.40
2023-05-06T02:12:32.869Z,6.73
2023-05-06T02:14:59.610Z,6.27
2023-05-06T02:17:26.467Z,6.03
2023-05-06T02:19:53.257Z,7.10
2023-05-06T02:22:20.070Z,7.10
2023-05-06T02:24:46.762Z,10.80
2023-05-06T02:27:13.631Z,7.23
2023-05-06T02:29:40.440Z,7.40
2023-05-06T02:32:07.526Z,7.20
2023-05-06T02:34:34.301Z,8.13
2023-05-06T02:37:01.278Z,9.83
2023-05-06T02:39:28.174Z,8.10
2023-05-06T02:41:54.976Z,8.20
2023-05-06T02:44:21.796Z,7.37
2023-05-06T02:46:48.579Z,9.63
2023-05-06T02:49:15.409Z,10.20
2023-05-06T02:51:42.187Z,9.60
2023-05-06T02:54:08.969Z,9.67
2023-05-06T02:56:35.721Z,8.27
2023-05-06T02:59:02.589Z,10.17
2023-05-06T03:01:29.379Z,9.60
2023-05-06T03:03:56.236Z,10.17
2023-05-06T03:06:23.061Z,12.83
2023-05-06T03:08:49.805Z,10.13
2023-05-06T03:11:16.563Z,10.80
2023-05-06T03:13:43.401Z,11.57
2023-05-06T03:16:14.287Z,11.13
2023-05-06T03:18:41.180Z,11.77
2023-05-06T03:21:08.010Z,13.40
2023-05-06T03:23:34.808Z,13.27
2023-05-06T03:26:01.525Z,11.87
2023-05-06T03:28:28.273Z,10.87
2023-05-06T03:30:55.094Z,11.33
2023-05-06T03:33:21.895Z,10.57
2023-05-06T03:35:48.639Z,11.83
2023-05-06T03:38:15.424Z,15.23
2023-05-06T03:40:42.283Z,10.87
2023-05-06T03:43:09.033Z,11.23
2023-05-06T03:45:35.991Z,12.70
2023-05-06T03:48:02.925Z,11.60
2023-05-06T03:50:29.725Z,13.97
2023-05-06T03:52:56.680Z,11.83
2023-05-06T03:55:23.514Z,11.50
2023-05-06T03:57:50.450Z,11.23
2023-05-06T04:00:17.576Z,12.10
2023-05-06T04:02:44.447Z,11.37
2023-05-06T04:05:11.499Z,10.53
2023-05-06T04:07:38.513Z,10.27
2023-05-06T04:10:06.089Z,11.67
2023-05-06T04:12:32.900Z,10.63
2023-05-06T04:14:59.686Z,11.03
2023-05-06T04:17:26.471Z,11.87
2023-05-06T04:19:54.073Z,12.57
2023-05-06T04:22:20.967Z,10.57
2023-05-06T04:24:47.836Z,10.50
2023-05-06T04:27:15.121Z,12.90
2023-05-06T04:29:41.851Z,11.73
2023-05-06T04:32:10.351Z,11.20
2023-05-06T04:34:37.169Z,11.70
2023-05-06T04:37:03.951Z,11.50
2023-05-06T04:39:31.976Z,12.10
2023-05-06T04:41:58.812Z,14.53
2023-05-06T04:44:25.603Z,12.70
2023-05-06T04:46:52.328Z,13.07
2023-05-06T04:49:20.113Z,14.20
2023-05-06T04:51:46.860Z,11.37
2023-05-06T04:54:13.659Z,11.20
2023-05-06T04:56:40.467Z,12.43
2023-05-06T04:59:07.570Z,11.77
2023-05-06T05:01:34.366Z,12.40
2023-05-06T05:04:01.122Z,12.50
2023-05-06T05:06:27.904Z,11.83
2023-05-06T05:08:55.483Z,12.03
2023-05-06T05:11:22.405Z,12.00
2023-05-06T05:13:49.446Z,12.97
2023-05-06T05:16:16.233Z,11.80
2023-05-06T05:18:43.027Z,10.63
2023-05-06T05:21:09.826Z,11.60
2023-05-06T05:23:36.713Z,10.87
2023-05-06T05:26:03.869Z,13.90
2023-05-06T05:28:30.644Z,12.20
2023-05-06T05:31:04.815Z,12.77
2023-05-06T05:33:31.809Z,12.63
2023-05-06T05:35:58.841Z,13.07
2023-05-06T05:38:25.689Z,12.17
2023-05-06T05:40:52.420Z,12.87
2023-05-06T05:43:21.386Z,14.43
2023-05-06T05:45:48.230Z,12.00
2023-05-06T05:48:15.070Z,12.77
2023-05-06T05:50:41.843Z,11.87
2023-05-06T05:53:08.584Z,11.20
2023-05-06T05:55:35.350Z,11.70
2023-05-06T05:58:02.044Z,13.40
2023-05-06T06:00:28.801Z,13.30
2023-05-06T06:02:55.681Z,11.90
2023-05-06T06:05:22.520Z,11.23
2023-05-06T06:07:49.638Z,11.67
2023-05-06T06:10:16.431Z,10.77
2023-05-06T06:12:44.741Z,12.17
2023-05-06T06:15:12.064Z,11.57
2023-05-06T06:17:38.975Z,13.67
2023-05-06T06:20:06.568Z,10.03
2023-05-06T06:22:33.375Z,9.97
2023-05-06T06:25:00.171Z,10.70
2023-05-06T06:27:26.954Z,10.17
2023-05-06T06:29:53.689Z,10.53
2023-05-06T06:32:20.407Z,11.13
2023-05-06T06:34:47.193Z,12.40
2023-05-06T06:37:13.928Z,11.37
2023-05-06T06:39:40.747Z,10.33
2023-05-06T06:42:07.479Z,12.03
2023-05-06T06:44:34.530Z,10.70
2023-05-06T06:47:01.417Z,10.07
2023-05-06T06:49:28.206Z,10.17
2023-05-06T06:51:57.424Z,11.93
2023-05-06T06:54:24.514Z,10.27
2023-05-06T06:56:55.969Z,10.07
2023-05-06T06:59:22.957Z,10.17
2023-05-06T07:01:49.884Z,10.30
2023-05-06T07:04:16.671Z,9.73
2023-05-06T07:06:43.477Z,8.90
2023-05-06T07:09:10.326Z,22.50
2023-05-06T07:11:37.111Z,10.80
2023-05-06T07:14:03.832Z,8.97
2023-05-06T07:16:30.672Z,8.33
2023-05-06T07:18:57.553Z,7.53
2023-05-06T07:21:24.398Z,8.50
2023-05-06T07:23:51.220Z,8.60
2023-05-06T07:26:17.974Z,8.33
2023-05-06T07:28:44.961Z,8.37
2023-05-06T07:31:11.719Z,8.10
2023-05-06T07:33:41.964Z,8.80
2023-05-06T07:36:08.819Z,9.87
2023-05-06T07:38:35.611Z,8.47
2023-05-06T07:41:02.500Z,7.70
2023-05-06T07:43:29.282Z,7.50
2023-05-06T07:46:02.940Z,7.63
2023-05-06T07:48:30.583Z,8.17
2023-05-06T07:50:58.142Z,8.93
2023-05-06T07:53:25.010Z,7.13
2023-05-06T07:55:52.709Z,6.47
2023-05-06T07:58:19.551Z,5.87
2023-05-06T08:00:46.315Z,9.07
2023-05-06T08:03:13.252Z,6.53
2023-05-06T08:05:40.234Z,6.27
2023-05-06T08:08:06.967Z,5.97
2023-05-06T08:10:34.209Z,5.17
2023-05-06T08:13:01.005Z,4.90
2023-05-06T08:15:27.859Z,4.73
2023-05-06T08:17:56.011Z,5.37
2023-05-06T08:20:23.329Z,4.17
2023-05-06T08:22:50.055Z,36.83
2023-05-06T08:25:16.931Z,45.77
2023-05-06T08:27:43.698Z,17.93
2023-05-06T08:30:11.203Z,10.80
2023-05-06T08:32:39.314Z,19.87
2023-05-06T08:35:07.176Z,7.97
2023-05-06T08:37:33.931Z,26.83
2023-05-06T08:40:00.655Z,15.90
2023-05-06T08:42:28.404Z,40.70
2023-05-06T08:44:56.057Z,6.00
2023-05-06T08:47:22.993Z,5.33
2023-05-06T08:49:49.888Z,8.17
2023-05-06T08:52:16.933Z,5.27
2023-05-06T08:54:45.067Z,19.27
2023-05-06T08:57:13.428Z,4.83
2023-05-06T08:59:41.618Z,4.13
2023-05-06T09:02:09.189Z,5.30
2023-05-06T09:04:37.360Z,4.73
2023-05-06T09:07:04.117Z,5.57
2023-05-06T09:09:30.799Z,4.10
2023-05-06T09:11:57.847Z,5.13
2023-05-06T09:14:24.820Z,4.63
2023-05-06T09:16:53.199Z,6.90
2023-05-06T09:19:21.930Z,3.93
2023-05-06T09:21:50.719Z,3.80
2023-05-06T09:24:17.901Z,5.20
2023-05-06T09:26:46.822Z,4.10
2023-05-06T09:29:14.016Z,4.03
2023-05-06T09:31:51.178Z,4.60
2023-05-06T09:34:18.163Z,3.87
2023-05-06T09:36:45.396Z,4.27
2023-05-06T09:39:12.225Z,3.10
2023-05-06T09:41:39.181Z,4.23
2023-05-06T09:44:06.247Z,5.00
2023-05-06T09:46:33.207Z,5.80
2023-05-06T09:49:01.556Z,4.40
2023-05-06T09:51:28.636Z,4.57
2023-05-06T09:53:58.076Z,5.07
2023-05-06T09:56:25.988Z,8.00
2023-05-06T09:58:54.434Z,6.63
2023-05-06T10:01:35.441Z,5.63
2023-05-06T10:04:10.211Z,4.83
2023-05-06T10:06:43.017Z,4.30
2023-05-06T10:09:10.790Z,5.20
2023-05-06T10:11:37.603Z,5.97
2023-05-06T10:14:05.175Z,4.97
2023-05-06T10:16:35.812Z,4.13
2023-05-06T10:19:04.727Z,4.90
2023-05-06T10:21:34.288Z,5.37
2023-05-06T10:24:07.386Z,6.30
2023-05-06T10:26:37.054Z,5.07
2023-05-06T10:29:08.691Z,5.33
2023-05-06T10:31:38.675Z,3.77
2023-05-06T10:34:08.741Z,3.90
2023-05-06T10:36:37.380Z,4.80
2023-05-06T10:39:04.863Z,2.93
2023-05-06T10:41:33.401Z,3.40
2023-05-06T10:44:00.352Z,3.63
2023-05-06T10:46:28.621Z,3.63
2023-05-06T10:49:13.979Z,3.53
2023-05-06T10:51:44.711Z,4.43
2023-05-06T10:54:22.954Z,6.13
2023-05-06T10:56:49.755Z,4.13
2023-05-06T10:59:25.082Z,2.93
2023-05-06T11:02:05.066Z,3.27
2023-05-06T11:04:32.105Z,3.20
2023-05-06T11:07:09.840Z,5.63
2023-05-06T11:09:55.844Z,4.90
2023-05-06T11:12:23.089Z,2.50
2023-05-06T11:14:49.978Z,2.40
2023-05-06T11:17:33.573Z,3.40
2023-05-06T11:20:23.380Z,1.60
2023-05-06T11:22:50.476Z,2.63
2023-05-06T11:25:53.617Z,5.17
2023-05-06T11:28:20.806Z,6.27
2023-05-06T11:30:55.915Z,3.40
2023-05-06T11:33:26.139Z,3.43
2023-05-06T11:35:53.244Z,4.30
2023-05-06T11:38:19.964Z,3.47
2023-05-06T11:40:46.762Z,3.13
2023-05-06T11:43:15.083Z,2.03
2023-05-06T11:45:46.494Z,1.83
2023-05-06T11:48:14.497Z,2.30
2023-05-06T11:50:46.097Z,2.33
2023-05-06T11:53:16.490Z,1.97
2023-05-06T11:55:44.444Z,1.80
2023-05-06T11:58:27.417Z,1.90
2023-05-06T12:00:56.957Z,2.33
2023-05-06T12:03:25.688Z,5.07
2023-05-06T12:05:53.204Z,2.00
2023-05-06T12:08:29.797Z,1.77
2023-05-06T12:11:02.287Z,2.80
2023-05-06T12:13:29.663Z,2.27
2023-05-06T12:15:58.604Z,2.77
2023-05-06T12:18:26.515Z,2.60
2023-05-06T12:20:57.212Z,1.70
2023-05-06T12:23:24.230Z,3.40
2023-05-06T12:26:09.188Z,5.87
2023-05-06T12:28:37.142Z,3.83
2023-05-06T12:31:20.878Z,2.80
2023-05-06T12:33:51.395Z,1.80
2023-05-06T12:36:19.217Z,2.30
2023-05-06T12:39:01.024Z,3.30
2023-05-06T12:41:38.429Z,2.40
2023-05-06T12:44:34.897Z,3.17
2023-05-06T12:47:07.774Z,2.10
2023-05-06T12:49:53.217Z,2.13
2023-05-06T12:52:22.142Z,2.00
2023-05-06T12:54:49.840Z,2.10
2023-05-06T12:57:17.095Z,1.83
2023-05-06T12:59:45.916Z,2.60
2023-05-06T13:02:13.947Z,3.80
2023-05-06T13:04:41.717Z,1.60
2023-05-06T13:07:08.920Z,2.10
2023-05-06T13:09:36.069Z,1.80
2023-05-06T13:12:04.695Z,4.20
2023-05-06T13:14:31.626Z,2.03
2023-05-06T13:17:01.089Z,2.00
2023-05-06T13:19:32.855Z,1.90
2023-05-06T13:22:00.813Z,2.30
2023-05-06T13:24:28.026Z,2.73
2023-05-06T13:26:56.447Z,2.00
2023-05-06T13:29:23.813Z,2.00
2023-05-06T13:31:51.563Z,1.80
2023-05-06T13:34:18.529Z,2.33
2023-05-06T13:36:46.884Z,1.63
2023-05-06T13:39:13.862Z,2.10
2023-05-06T13:41:40.864Z,3.47
2023-05-06T13:44:07.980Z,2.10
2023-05-06T13:46:34.791Z,2.20
2023-05-06T13:49:01.579Z,2.37
2023-05-06T13:51:30.753Z,1.77
2023-05-06T13:53:57.633Z,2.87
2023-05-06T13:56:24.424Z,3.03
2023-05-06T13:58:53.126Z,3.50
2023-05-06T14:01:23.951Z,2.80
2023-05-06T14:03:51.076Z,2.57
2023-05-06T14:06:17.916Z,2.27
2023-05-06T14:08:45.343Z,2.57
2023-05-06T14:11:12.203Z,3.77
2023-05-06T14:13:40.330Z,3.03
2023-05-06T14:16:07.339Z,4.30
2023-05-06T14:18:34.520Z,1.80
2023-05-06T14:21:01.303Z,1.53
2023-05-06T14:23:28.188Z,2.13
2023-05-06T14:25:54.946Z,1.93
2023-05-06T14:28:21.700Z,1.53
2023-05-06T14:30:49.885Z,3.57
2023-05-06T14:33:16.804Z,3.10
2023-05-06T14:35:43.802Z,2.27
2023-05-06T14:38:11.010Z,1.90
2023-05-06T14:40:38.932Z,2.00
2023-05-06T14:43:07.696Z,2.07
2023-05-06T14:45:35.011Z,2.40
2023-05-06T14:48:02.109Z,2.93
2023-05-06T14:50:31.015Z,6.43
2023-05-06T14:52:57.916Z,3.23
2023-05-06T14:55:24.966Z,2.60
2023-05-06T14:57:51.716Z,3.23
2023-05-06T15:00:18.859Z,1.53
2023-05-06T15:02:46.256Z,5.63
2023-05-06T15:05:13.442Z,1.50
2023-05-06T15:07:41.188Z,2.60
2023-05-06T15:10:08.306Z,1.77
2023-05-06T15:12:36.734Z,2.10
2023-05-06T15:15:05.152Z,1.73
2023-05-06T15:17:32.603Z,1.63
2023-05-06T15:19:59.481Z,1.73
2023-05-06T15:22:26.318Z,4.33
2023-05-06T15:24:53.121Z,1.90
2023-05-06T15:27:19.922Z,1.50
2023-05-06T15:29:46.648Z,1.93
2023-05-06T15:32:13.440Z,1.50
2023-05-06T15:34:40.758Z,2.37
2023-05-06T15:37:08.156Z,2.10
2023-05-06T15:39:38.773Z,1.73
2023-05-06T15:42:06.190Z,2.17
2023-05-06T15:44:33.874Z,1.87
2023-05-06T15:47:01.098Z,2.53
2023-05-06T15:52:00.536Z,3.60
2023-05-06T15:54:28.114Z,2.03
2023-05-06T15:56:54.974Z,1.70
2023-05-06T15:59:21.808Z,3.40
2023-05-06T16:04:18.435Z,2.43
2023-05-06T16:06:45.298Z,2.27
2023-05-06T16:09:12.094Z,2.30
2023-05-06T16:11:39.146Z,2.80
2023-05-06T16:14:05.933Z,1.90
2023-05-06T16:16:32.909Z,2.23
2023-05-06T16:18:59.806Z,2.20
2023-05-06T16:21:27.139Z,11.43
2023-05-06T16:23:53.907Z,1.90
2023-05-06T16:26:20.822Z,2.00
2023-05-06T16:28:47.603Z,4.10
2023-05-06T16:31:14.435Z,2.17
2023-05-06T16:33:41.248Z,3.23
2023-05-06T16:36:08.346Z,1.70
2023-05-06T16:38:35.209Z,1.70
2023-05-06T16:41:02.129Z,3.23
2023-05-06T16:43:28.927Z,2.37
2023-05-06T16:45:55.886Z,2.80
2023-05-06T16:48:23.863Z,2.20
2023-05-06T16:50:51.861Z,4.50
2023-05-06T16:53:18.759Z,1.90
2023-05-06T16:55:49.637Z,3.90
2023-05-06T16:58:16.803Z,2.80
2023-05-06T17:00:44.093Z,1.80
2023-05-06T17:03:11.737Z,2.33
2023-05-06T17:05:38.699Z,2.77
2023-05-06T17:08:05.752Z,1.87
2023-05-06T17:10:32.609Z,2.50
2023-05-06T17:12:59.551Z,2.00
2023-05-06T17:15:26.559Z,3.70
2023-05-06T17:17:53.522Z,2.20
2023-05-06T17:20:20.889Z,3.00
2023-05-06T17:22:47.899Z,2.10
2023-05-06T17:25:15.306Z,2.80
2023-05-06T17:27:42.066Z,3.30
2023-05-06T17:30:12.459Z,3.00
2023-05-06T17:32:43.072Z,1.90
2023-05-06T17:35:10.470Z,4.00
2023-05-06T17:37:37.666Z,3.17
2023-05-06T17:40:06.836Z,2.23
2023-05-06T17:42:34.358Z,2.30
2023-05-06T17:45:01.166Z,2.60
2023-05-06T17:47:30.242Z,2.67
2023-05-06T17:49:57.496Z,2.50
2023-05-06T17:52:26.659Z,2.47
2023-05-06T17:55:06.296Z,2.30
2023-05-06T17:57:40.913Z,2.23
2023-05-06T18:00:09.233Z,3.40
2023-05-06T18:02:36.454Z,4.60
2023-05-06T18:05:03.430Z,3.90
2023-05-06T18:07:30.437Z,3.37
2023-05-06T18:09:57.280Z,3.83
2023-05-06T18:12:24.316Z,1.77
2023-05-06T18:14:51.168Z,2.07
2023-05-06T18:17:17.924Z,2.07
2023-05-06T18:19:44.766Z,2.27
2023-05-06T18:22:11.573Z,1.60
2023-05-06T18:24:38.478Z,1.67
2023-05-06T18:27:05.380Z,2.50
2023-05-06T18:29:33.240Z,2.67
2023-05-06T18:32:01.189Z,6.40
2023-05-06T18:34:28.390Z,3.33
2023-05-06T18:36:55.307Z,3.00
2023-05-06T18:39:25.993Z,2.97
2023-05-06T18:41:52.699Z,3.60
2023-05-06T18:44:19.558Z,2.83
2023-05-06T18:46:46.473Z,3.70
2023-05-06T18:49:16.518Z,4.10
2023-05-06T18:51:43.430Z,3.50
2023-05-06T18:54:10.483Z,4.73
2023-05-06T18:56:37.520Z,3.43
2023-05-06T18:59:04.468Z,3.33
2023-05-06T19:01:31.550Z,4.50
2023-05-06T19:03:58.496Z,3.67
2023-05-06T19:06:25.436Z,6.07
2023-05-06T19:08:53.577Z,5.27
2023-05-06T19:11:21.166Z,7.00
2023-05-06T19:13:48.024Z,4.13
2023-05-06T19:16:15.112Z,6.87
2023-05-06T19:18:41.986Z,4.87
2023-05-06T19:21:12.763Z,4.70
2023-05-06T19:23:39.530Z,5.47
2023-05-06T19:26:07.034Z,6.90
2023-05-06T19:28:34.423Z,7.13
2023-05-06T19:31:01.722Z,7.07
2023-05-06T19:33:28.742Z,8.93
2023-05-06T19:35:55.552Z,8.07
2023-05-06T19:38:22.413Z,9.70
2023-05-06T19:40:49.321Z,7.70
2023-05-06T19:43:16.157Z,7.10
2023-05-06T19:45:43.032Z,7.97
2023-05-06T19:48:09.824Z,6.17
2023-05-06T19:50:36.771Z,6.30
2023-05-06T19:53:03.840Z,6.67
2023-05-06T19:55:31.138Z,5.90
2023-05-06T19:57:58.434Z,5.60
2023-05-06T20:00:28.118Z,6.70
2023-05-06T20:02:58.701Z,8.40
2023-05-06T20:05:30.842Z,5.30
2023-05-06T20:07:59.949Z,7.40
2023-05-06T20:10:28.086Z,8.47
2023-05-06T20:12:57.330Z,5.73
2023-05-06T20:15:26.869Z,4.87
2023-05-06T20:17:54.024Z,6.70
2023-05-06T20:20:21.160Z,6.77
2023-05-06T20:22:48.005Z,6.13
2023-05-06T20:25:17.556Z,8.23
2023-05-06T20:27:45.404Z,5.70
2023-05-06T20:30:13.005Z,8.40
2023-05-06T20:32:40.884Z,6.70
2023-05-06T20:35:09.023Z,6.50
2023-05-06T20:37:36.822Z,3.97
2023-05-06T20:40:05.749Z,7.10
2023-05-06T20:42:32.542Z,11.13
2023-05-06T20:45:00.069Z,7.77
2023-05-06T20:47:27.265Z,9.90
2023-05-06T20:49:54.540Z,16.67
2023-05-06T20:52:21.831Z,15.07
2023-05-06T20:54:49.102Z,10.97
2023-05-06T20:57:16.700Z,6.33
2023-05-06T20:59:43.970Z,11.43
2023-05-06T21:02:11.136Z,7.60
2023-05-06T21:04:38.125Z,7.87
2023-05-06T21:07:04.977Z,11.80
2023-05-06T21:09:31.821Z,8.73
2023-05-06T21:11:58.937Z,8.13
2023-05-06T21:14:26.806Z,10.07
2023-05-06T21:16:53.895Z,9.40
2023-05-06T21:19:21.042Z,9.00
2023-05-06T21:21:48.404Z,8.57
2023-05-06T21:24:15.525Z,7.40
2023-05-06T21:26:42.439Z,7.63
2023-05-06T21:29:09.315Z,8.20
2023-05-06T21:31:36.399Z,10.70
2023-05-06T21:34:04.236Z,11.93
2023-05-06T21:36:31.356Z,11.67
2023-05-06T21:39:12.129Z,10.20
2023-05-06T21:41:39.774Z,8.30
2023-05-06T21:44:08.464Z,7.97
2023-05-06T21:46:36.668Z,5.70
2023-05-06T21:49:03.884Z,5.17
2023-05-06T21:51:32.580Z,8.10
2023-05-06T21:53:59.453Z,6.10
2023-05-06T21:56:26.245Z,5.80
2023-05-06T21:58:55.712Z,6.63
2023-05-06T22:01:26.125Z,3.93
2023-05-06T22:03:53.901Z,4.70
2023-05-06T22:06:21.449Z,5.87
2023-05-06T22:08:48.295Z,5.80
2023-05-06T22:11:15.193Z,4.77
2023-05-06T22:13:41.923Z,7.10
2023-05-06T22:16:09.829Z,6.30
2023-05-06T22:18:41.227Z,5.37
2023-05-06T22:21:08.688Z,5.20
2023-05-06T22:23:35.734Z,7.83
2023-05-06T22:26:04.803Z,6.10
2023-05-06T22:28:31.678Z,5.53
2023-05-06T22:30:58.448Z,5.87
2023-05-06T22:33:26.861Z,7.23
2023-05-06T22:35:53.801Z,7.33
2023-05-06T22:38:20.595Z,6.00
2023-05-06T22:40:47.408Z,5.80
2023-05-06T22:43:14.093Z,6.30
2023-05-06T22:45:40.911Z,6.80
2023-05-06T22:48:07.691Z,6.70
2023-05-06T22:50:34.498Z,7.90
2023-05-06T22:53:10.361Z,5.77
2023-05-06T22:55:41.548Z,14.43
2023-05-06T22:58:08.331Z,5.20
2023-05-06T23:00:35.129Z,5.27
2023-05-06T23:03:01.985Z,6.03
2023-05-06T23:05:28.830Z,4.67
2023-05-06T23:07:55.546Z,5.17
2023-05-06T23:10:22.261Z,7.63
2023-05-06T23:12:49.149Z,4.87
2023-05-06T23:15:15.947Z,6.40
2023-05-06T23:17:42.706Z,8.30
2023-05-06T23:20:11.880Z,7.27
2023-05-06T23:22:38.826Z,10.47
2023-05-06T23:25:06.813Z,5.30
2023-05-06T23:27:34.724Z,8.50
2023-05-06T23:30:01.600Z,6.83
2023-05-06T23:32:28.411Z,6.37
2023-05-06T23:34:55.203Z,8.30
2023-05-06T23:37:21.994Z,6.50
2023-05-06T23:39:48.795Z,6.67
2023-05-06T23:42:15.670Z,5.50
2023-05-06T23:44:42.379Z,5.57
2023-05-06T23:47:09.135Z,6.57
2023-05-06T23:49:36.476Z,6.50
2023-05-06T23:52:03.587Z,4.80
2023-05-06T23:54:30.366Z,5.60
2023-05-06T23:56:57.098Z,7.30
2023-05-06T23:59:23.852Z,5.30
